createdAt,value
2023-02-08T00:00:46.577Z,73.00
2023-02-08T00:03:13.429Z,73.15
2023-02-08T00:05:40.882Z,73.19
2023-02-08T00:08:09.057Z,73.32
2023-02-08T00:10:35.913Z,73.26
2023-02-08T00:13:02.959Z,73.27
2023-02-08T00:15:30.189Z,73.40
2023-02-08T00:17:57.070Z,73.31
2023-02-08T00:20:23.773Z,73.47
2023-02-08T00:22:52.527Z,73.51
2023-02-08T00:25:20.256Z,73.61
2023-02-08T00:27:47.168Z,73.64
2023-02-08T00:30:14.332Z,73.69
2023-02-08T00:32:41.994Z,73.74
2023-02-08T00:35:09.150Z,73.72
2023-02-08T00:37:35.989Z,73.61
2023-02-08T00:40:05.238Z,73.74
2023-02-08T00:42:32.233Z,73.83
2023-02-08T00:44:59.136Z,73.80
2023-02-08T00:47:26.019Z,73.83
2023-02-08T00:49:53.993Z,74.08
2023-02-08T00:52:20.942Z,74.02
2023-02-08T00:54:47.761Z,73.95
2023-02-08T00:57:14.928Z,73.94
2023-02-08T00:59:42.391Z,74.07
2023-02-08T01:02:09.186Z,74.14
2023-02-08T01:04:36.492Z,74.05
2023-02-08T01:07:04.492Z,74.07
2023-02-08T01:09:31.286Z,74.07
2023-02-08T01:11:57.984Z,74.17
2023-02-08T01:14:25.395Z,74.28
2023-02-08T01:16:52.853Z,74.31
2023-02-08T01:19:19.799Z,74.39
2023-02-08T01:21:48.797Z,74.34
2023-02-08T01:24:16.278Z,74.44
2023-02-08T01:26:43.301Z,74.41
2023-02-08T01:29:10.590Z,74.52
2023-02-08T01:31:40.296Z,74.68
2023-02-08T01:34:08.434Z,74.50
2023-02-08T01:36:35.824Z,74.79
2023-02-08T01:39:04.375Z,74.80
2023-02-08T01:41:33.954Z,74.86
2023-02-08T01:44:01.044Z,74.84
2023-02-08T01:46:28.802Z,74.92
2023-02-08T01:48:57.796Z,74.96
2023-02-08T01:51:28.421Z,75.03
2023-02-08T01:53:55.400Z,75.03
2023-02-08T01:56:28.556Z,75.06
2023-02-08T01:58:57.566Z,75.09
2023-02-08T02:01:24.799Z,75.10
2023-02-08T02:03:51.763Z,75.21
2023-02-08T02:06:25.513Z,75.28
2023-02-08T02:09:33.164Z,75.32
2023-02-08T02:12:00.721Z,75.17
2023-02-08T02:14:27.734Z,75.35
2023-02-08T02:16:54.950Z,75.34
2023-02-08T02:19:31.183Z,75.38
2023-02-08T02:22:14.831Z,75.37
2023-02-08T02:24:59.614Z,75.17
2023-02-08T02:27:45.778Z,75.24
2023-02-08T02:30:25.267Z,75.44
2023-02-08T02:33:10.597Z,75.38
2023-02-08T02:35:49.530Z,75.51
2023-02-08T02:38:20.674Z,75.38
2023-02-08T02:40:53.626Z,75.56
2023-02-08T02:43:43.643Z,75.50
2023-02-08T02:46:24.220Z,75.58
2023-02-08T02:49:03.969Z,75.62
2023-02-08T02:51:57.322Z,75.60
2023-02-08T02:54:25.273Z,75.61
2023-02-08T02:56:59.680Z,75.70
2023-02-08T02:59:26.763Z,75.74
2023-02-08T03:01:54.089Z,75.97
2023-02-08T03:04:33.071Z,75.75
2023-02-08T03:07:21.816Z,75.91
2023-02-08T03:10:22.687Z,75.82
2023-02-08T03:13:37.458Z,75.93
2023-02-08T03:16:07.737Z,75.85
2023-02-08T03:18:42.668Z,75.94
2023-02-08T03:21:12.233Z,75.80
2023-02-08T03:23:51.356Z,75.77
2023-02-08T03:26:23.276Z,75.84
2023-02-08T03:29:01.893Z,75.90
2023-02-08T03:31:33.148Z,75.91
2023-02-08T03:34:12.419Z,75.88
2023-02-08T03:37:26.500Z,75.94
2023-02-08T03:39:58.296Z,75.97
2023-02-08T03:42:25.543Z,75.96
2023-02-08T03:45:05.176Z,75.93
2023-02-08T03:47:37.680Z,75.91
2023-02-08T03:50:07.271Z,76.00
2023-02-08T03:52:34.437Z,76.08
2023-02-08T03:55:10.430Z,76.01
2023-02-08T03:57:45.814Z,75.97
2023-02-08T04:00:14.047Z,76.10
2023-02-08T04:02:46.402Z,76.09
2023-02-08T04:05:13.614Z,76.08
2023-02-08T04:07:40.763Z,76.19
2023-02-08T04:10:08.030Z,76.33
2023-02-08T04:12:35.475Z,76.28
2023-02-08T04:15:02.884Z,76.25
2023-02-08T04:17:29.878Z,76.32
2023-02-08T04:19:57.129Z,76.25
2023-02-08T04:22:23.865Z,76.49
2023-02-08T04:24:50.758Z,76.34
2023-02-08T04:27:17.480Z,76.65
2023-02-08T04:29:44.506Z,76.56
2023-02-08T04:32:11.254Z,76.74
2023-02-08T04:34:39.332Z,76.73
2023-02-08T04:37:06.764Z,76.75
2023-02-08T04:39:33.625Z,76.66
2023-02-08T04:42:02.292Z,76.80
2023-02-08T04:44:32.270Z,76.75
2023-02-08T04:46:59.894Z,76.89
2023-02-08T04:49:26.634Z,76.83
2023-02-08T04:51:54.091Z,76.75
2023-02-08T04:54:21.962Z,76.87
2023-02-08T04:56:48.655Z,77.08
2023-02-08T04:59:15.234Z,76.93
2023-02-08T05:01:41.965Z,76.99
2023-02-08T05:04:08.917Z,77.05
2023-02-08T05:06:35.618Z,77.17
2023-02-08T05:09:03.013Z,77.08
2023-02-08T05:11:30.005Z,77.17
2023-02-08T05:13:56.960Z,77.12
2023-02-08T05:16:24.110Z,77.16
2023-02-08T05:18:50.863Z,77.26
2023-02-08T05:21:17.843Z,77.39
2023-02-08T05:23:46.623Z,77.25
2023-02-08T05:26:14.817Z,77.16
2023-02-08T05:28:41.786Z,77.33
2023-02-08T05:31:20.060Z,76.97
2023-02-08T05:33:48.445Z,77.07
2023-02-08T05:36:16.536Z,77.23
2023-02-08T05:38:43.457Z,77.32
2023-02-08T05:41:10.302Z,77.02
2023-02-08T05:43:37.961Z,77.20
2023-02-08T05:46:05.155Z,77.05
2023-02-08T05:48:31.804Z,77.04
2023-02-08T05:50:59.221Z,77.23
2023-02-08T05:53:26.755Z,77.08
2023-02-08T05:55:53.513Z,77.19
2023-02-08T05:58:20.356Z,77.17
2023-02-08T06:00:47.605Z,77.15
2023-02-08T06:03:14.411Z,77.21
2023-02-08T06:05:41.633Z,77.01
2023-02-08T06:08:08.857Z,76.90
2023-02-08T06:10:36.173Z,76.92
2023-02-08T06:13:03.493Z,76.94
2023-02-08T06:15:30.506Z,77.04
2023-02-08T06:17:57.994Z,76.70
2023-02-08T06:20:24.813Z,76.71
2023-02-08T06:22:52.192Z,76.75
2023-02-08T06:25:19.546Z,76.75
2023-02-08T06:27:46.847Z,76.69
2023-02-08T06:30:13.658Z,76.44
2023-02-08T06:32:41.017Z,76.35
2023-02-08T06:35:08.348Z,76.35
2023-02-08T06:37:35.891Z,76.47
2023-02-08T06:40:03.720Z,76.30
2023-02-08T06:42:31.237Z,76.08
2023-02-08T06:44:58.689Z,76.02
2023-02-08T06:47:26.242Z,76.15
2023-02-08T06:49:53.185Z,76.02
2023-02-08T06:52:20.493Z,75.91
2023-02-08T06:54:47.585Z,75.74
2023-02-08T06:57:14.356Z,75.62
2023-02-08T06:59:41.410Z,75.46
2023-02-08T07:02:12.991Z,75.35
2023-02-08T07:04:40.004Z,75.07
2023-02-08T07:07:07.088Z,75.15
2023-02-08T07:09:34.921Z,75.09
2023-02-08T07:12:04.644Z,74.91
2023-02-08T07:14:33.292Z,74.86
2023-02-08T07:17:02.811Z,74.94
2023-02-08T07:19:29.991Z,74.58
2023-02-08T07:21:57.241Z,74.47
2023-02-08T07:24:24.095Z,74.38
2023-02-08T07:26:52.063Z,74.22
2023-02-08T07:29:19.184Z,74.26
2023-02-08T07:31:46.452Z,74.15
2023-02-08T07:34:13.665Z,73.98
2023-02-08T07:36:44.710Z,74.12
2023-02-08T07:39:12.270Z,73.98
2023-02-08T07:41:42.349Z,73.82
2023-02-08T07:44:09.922Z,73.85
2023-02-08T07:46:36.800Z,73.84
2023-02-08T07:49:03.757Z,73.61
2023-02-08T07:51:30.523Z,73.69
2023-02-08T07:53:57.332Z,73.41
2023-02-08T07:56:24.202Z,73.42
2023-02-08T07:58:51.117Z,73.19
2023-02-08T08:01:22.367Z,73.12
2023-02-08T08:03:50.798Z,73.02
2023-02-08T08:06:19.334Z,72.79
2023-02-08T08:08:47.476Z,72.80
2023-02-08T08:11:15.510Z,72.70
2023-02-08T08:13:43.751Z,72.50
2023-02-08T08:16:10.762Z,72.35
2023-02-08T08:18:37.592Z,72.22
2023-02-08T08:21:05.494Z,72.04
2023-02-08T08:23:32.768Z,71.85
2023-02-08T08:26:00.328Z,71.77
2023-02-08T08:28:27.399Z,71.91
2023-02-08T08:30:54.513Z,71.71
2023-02-08T08:33:21.718Z,71.78
2023-02-08T08:35:48.505Z,71.62
2023-02-08T08:38:15.301Z,71.58
2023-02-08T08:40:43.000Z,71.37
2023-02-08T08:43:10.814Z,71.25
2023-02-08T08:45:37.735Z,70.91
2023-02-08T08:48:05.398Z,70.79
2023-02-08T08:50:33.776Z,70.71
2023-02-08T08:53:00.724Z,70.69
2023-02-08T08:55:27.986Z,70.69
2023-02-08T08:57:54.922Z,70.56
2023-02-08T09:00:22.487Z,70.61
2023-02-08T09:02:49.527Z,70.37
2023-02-08T09:05:16.482Z,69.99
2023-02-08T09:07:43.439Z,69.90
2023-02-08T09:10:15.508Z,69.94
2023-02-08T09:12:42.463Z,69.82
2023-02-08T09:15:11.020Z,69.61
2023-02-08T09:17:38.370Z,69.32
2023-02-08T09:20:05.795Z,69.19
2023-02-08T09:22:33.134Z,69.09
2023-02-08T09:25:01.844Z,68.83
2023-02-08T09:27:29.447Z,68.70
2023-02-08T09:29:56.471Z,68.65
2023-02-08T09:32:23.624Z,68.63
2023-02-08T09:34:51.131Z,68.39
2023-02-08T09:37:18.040Z,68.19
2023-02-08T09:39:45.166Z,68.01
2023-02-08T09:42:17.965Z,67.97
2023-02-08T09:44:55.267Z,67.77
2023-02-08T09:47:36.463Z,67.73
2023-02-08T09:50:05.584Z,67.53
2023-02-08T09:52:42.269Z,67.29
2023-02-08T09:55:30.970Z,67.23
2023-02-08T09:57:58.933Z,67.05
2023-02-08T10:00:41.211Z,67.07
2023-02-08T10:03:33.306Z,66.84
2023-02-08T10:06:02.059Z,66.66
2023-02-08T10:08:35.256Z,66.62
2023-02-08T10:11:08.978Z,66.49
2023-02-08T10:14:03.156Z,66.48
2023-02-08T10:16:49.515Z,66.25
2023-02-08T10:19:35.636Z,66.02
2023-02-08T10:22:34.892Z,65.91
2023-02-08T10:25:23.526Z,65.87
2023-02-08T10:28:12.609Z,65.84
2023-02-08T10:30:39.513Z,65.71
2023-02-08T10:33:11.878Z,65.68
2023-02-08T10:35:41.884Z,65.71
2023-02-08T10:38:44.242Z,65.58
2023-02-08T10:41:35.396Z,65.11
2023-02-08T10:44:30.396Z,64.93
2023-02-08T10:47:15.777Z,64.74
2023-02-08T10:50:09.591Z,64.56
2023-02-08T10:52:37.431Z,64.58
2023-02-08T10:55:15.486Z,64.58
2023-02-08T10:57:43.487Z,64.60
2023-02-08T11:00:13.296Z,64.51
2023-02-08T11:02:41.013Z,64.33
2023-02-08T11:05:13.266Z,64.23
2023-02-08T11:07:41.814Z,63.82
2023-02-08T11:10:17.669Z,63.80
2023-02-08T11:12:57.932Z,63.86
2023-02-08T11:15:29.096Z,63.99
2023-02-08T11:18:00.529Z,64.01
2023-02-08T11:20:36.142Z,63.90
2023-02-08T11:23:04.814Z,63.81
2023-02-08T11:25:38.542Z,63.76
2023-02-08T11:28:41.492Z,63.69
2023-02-08T11:31:19.547Z,63.63
2023-02-08T11:34:05.879Z,63.38
2023-02-08T11:36:33.960Z,63.53
2023-02-08T11:39:02.934Z,63.43
2023-02-08T11:41:29.991Z,63.59
2023-02-08T11:44:01.239Z,63.52
2023-02-08T11:46:28.988Z,63.72
2023-02-08T11:48:55.904Z,63.71
2023-02-08T11:51:31.993Z,63.59
2023-02-08T11:54:00.380Z,63.55
2023-02-08T11:56:28.893Z,63.65
2023-02-08T11:59:15.317Z,63.47
2023-02-08T12:01:43.118Z,63.54
2023-02-08T12:04:11.309Z,63.50
2023-02-08T12:06:58.261Z,63.49
2023-02-08T12:09:36.425Z,63.49
2023-02-08T12:12:15.028Z,63.48
2023-02-08T12:15:13.017Z,63.57
2023-02-08T12:17:52.585Z,63.74
2023-02-08T12:20:30.129Z,63.96
2023-02-08T12:23:09.592Z,63.98
2023-02-08T12:25:43.065Z,64.14
2023-02-08T12:28:16.515Z,64.12
2023-02-08T12:30:57.487Z,64.27
2023-02-08T12:33:46.531Z,64.33
2023-02-08T12:37:11.222Z,64.45
2023-02-08T12:40:38.802Z,64.52
2023-02-08T12:43:21.269Z,64.62
2023-02-08T12:45:57.382Z,64.58
2023-02-08T12:48:33.737Z,64.67
2023-02-08T12:51:06.612Z,64.73
2023-02-08T12:53:38.875Z,64.81
2023-02-08T12:56:08.187Z,64.81
2023-02-08T12:58:39.814Z,64.91
2023-02-08T13:01:34.354Z,64.97
2023-02-08T13:04:09.060Z,64.86
2023-02-08T13:06:41.716Z,64.97
2023-02-08T13:16:46.872Z,64.79
2023-02-08T13:19:27.301Z,65.01
2023-02-08T13:21:55.721Z,64.85
2023-02-08T13:24:52.439Z,64.94
2023-02-08T13:27:29.955Z,64.82
2023-02-08T13:29:58.648Z,64.88
2023-02-08T13:32:42.776Z,64.90
2023-02-08T13:35:20.150Z,64.83
2023-02-08T13:38:12.392Z,64.75
2023-02-08T13:40:41.127Z,64.66
2023-02-08T13:43:34.316Z,64.85
2023-02-08T13:46:03.480Z,64.76
2023-02-08T13:48:48.911Z,64.82
2023-02-08T13:51:32.656Z,64.78
2023-02-08T13:54:01.069Z,64.81
2023-02-08T13:56:48.890Z,64.86
2023-02-08T13:59:29.114Z,64.84
2023-02-08T14:02:19.113Z,64.71
2023-02-08T14:05:19.962Z,64.82
2023-02-08T14:07:48.234Z,64.90
2023-02-08T14:10:37.704Z,65.04
2023-02-08T14:13:25.333Z,65.03
2023-02-08T14:16:24.382Z,65.07
2023-02-08T14:18:57.934Z,65.12
2023-02-08T14:21:45.987Z,65.16
2023-02-08T14:24:23.549Z,65.13
2023-02-08T14:26:51.853Z,65.29
2023-02-08T14:29:24.573Z,65.38
2023-02-08T14:31:55.559Z,65.39
2023-02-08T14:34:34.894Z,65.47
2023-02-08T14:37:27.816Z,65.50
2023-02-08T14:40:23.563Z,65.67
2023-02-08T14:43:03.334Z,65.74
2023-02-08T14:45:37.970Z,65.81
2023-02-08T14:48:20.766Z,65.98
2023-02-08T14:51:10.884Z,65.99
2023-02-08T14:53:42.322Z,66.17
2023-02-08T14:56:10.393Z,66.08
2023-02-08T14:58:43.627Z,66.12
2023-02-08T15:01:45.046Z,66.34
2023-02-08T15:04:13.485Z,66.51
2023-02-08T15:07:09.364Z,66.53
2023-02-08T15:09:39.301Z,66.55
2023-02-08T15:12:34.516Z,66.79
2023-02-08T15:15:07.157Z,66.97
2023-02-08T15:17:39.304Z,66.96
2023-02-08T15:20:09.414Z,67.07
2023-02-08T15:22:38.621Z,67.27
2023-02-08T15:25:34.801Z,67.23
2023-02-08T15:28:24.061Z,67.35
2023-02-08T15:31:11.885Z,67.48
2023-02-08T15:33:40.743Z,67.60
2023-02-08T15:36:15.311Z,67.72
2023-02-08T15:38:45.083Z,67.58
2023-02-08T15:41:14.517Z,67.87
2023-02-08T15:43:43.074Z,67.97
2023-02-08T15:46:22.290Z,68.07
2023-02-08T15:48:51.200Z,68.14
2023-02-08T15:51:23.222Z,68.14
2023-02-08T15:53:52.767Z,68.17
2023-02-08T15:56:36.795Z,68.44
2023-02-08T15:59:07.015Z,68.43
2023-02-08T16:01:37.121Z,68.58
2023-02-08T16:04:12.648Z,68.76
2023-02-08T16:06:53.407Z,68.66
2023-02-08T16:09:27.526Z,68.74
2023-02-08T16:12:00.823Z,68.96
2023-02-08T16:14:38.040Z,68.89
2023-02-08T16:17:44.230Z,69.02
2023-02-08T16:20:41.470Z,69.09
2023-02-08T16:23:25.539Z,69.24
2023-02-08T16:25:54.129Z,69.34
2023-02-08T16:28:30.216Z,69.46
2023-02-08T16:31:00.038Z,69.44
2023-02-08T16:33:28.200Z,69.47
2023-02-08T16:36:02.003Z,69.54
2023-02-08T16:38:31.778Z,69.61
2023-02-08T16:41:12.338Z,69.74
2023-02-08T16:43:44.521Z,69.85
2023-02-08T16:46:16.420Z,70.06
2023-02-08T16:48:56.849Z,70.10
2023-02-08T16:51:29.216Z,70.31
2023-02-08T16:54:02.531Z,70.49
2023-02-08T16:56:30.732Z,70.35
2023-02-08T16:58:58.987Z,70.43
2023-02-08T17:01:28.712Z,70.53
2023-02-08T17:03:57.070Z,70.41
2023-02-08T17:06:34.771Z,70.44
2023-02-08T17:09:06.358Z,70.70
2023-02-08T17:11:36.196Z,70.67
2023-02-08T17:14:05.227Z,70.74
2023-02-08T17:16:34.497Z,70.80
2023-02-08T17:19:03.036Z,70.97
2023-02-08T17:21:31.434Z,70.75
2023-02-08T17:23:59.486Z,70.82
2023-02-08T17:26:37.950Z,70.96
2023-02-08T17:29:06.182Z,70.87
2023-02-08T17:31:35.902Z,71.03
2023-02-08T17:34:07.034Z,70.94
2023-02-08T17:36:37.130Z,71.25
2023-02-08T17:39:05.519Z,71.26
2023-02-08T17:41:35.511Z,71.30
2023-02-08T17:44:04.278Z,71.41
2023-02-08T17:46:33.484Z,71.19
2023-02-08T17:49:01.938Z,71.20
2023-02-08T17:51:30.733Z,71.42
2023-02-08T17:53:58.959Z,71.45
2023-02-08T17:56:28.645Z,71.44
2023-02-08T17:58:56.707Z,71.55
2023-02-08T18:01:26.336Z,71.48
2023-02-08T18:03:55.068Z,71.50
2023-02-08T18:06:25.083Z,71.72
2023-02-08T18:08:56.439Z,71.67
2023-02-08T18:11:24.734Z,71.82
2023-02-08T18:13:53.454Z,71.81
2023-02-08T18:16:24.047Z,71.80
2023-02-08T18:18:55.643Z,71.82
2023-02-08T18:21:25.947Z,71.85
2023-02-08T18:23:55.744Z,71.88
2023-02-08T18:26:24.299Z,72.00
2023-02-08T18:28:53.023Z,72.01
2023-02-08T18:31:21.308Z,72.01
2023-02-08T18:33:50.244Z,72.03
2023-02-08T18:36:19.625Z,71.92
2023-02-08T18:38:52.679Z,72.06
2023-02-08T18:41:26.261Z,72.05
2023-02-08T18:43:55.402Z,72.04
2023-02-08T18:46:26.390Z,72.13
2023-02-08T18:48:54.690Z,71.92
2023-02-08T18:51:23.407Z,72.12
2023-02-08T18:53:53.753Z,72.07
2023-02-08T18:56:24.022Z,72.29
2023-02-08T18:58:52.956Z,72.34
2023-02-08T19:01:22.681Z,72.37
2023-02-08T19:03:52.020Z,72.43
2023-02-08T19:06:22.826Z,72.53
2023-02-08T19:08:52.448Z,72.67
2023-02-08T19:11:20.583Z,72.71
2023-02-08T19:13:49.617Z,72.69
2023-02-08T19:16:17.988Z,72.87
2023-02-08T19:18:48.566Z,72.83
2023-02-08T19:21:17.588Z,72.88
2023-02-08T19:23:47.581Z,72.88
2023-02-08T19:26:25.652Z,72.87
2023-02-08T19:28:57.737Z,72.86
2023-02-08T19:31:26.790Z,72.88
2023-02-08T19:33:58.505Z,72.94
2023-02-08T19:36:29.166Z,72.92
2023-02-08T19:38:57.574Z,72.84
2023-02-08T19:41:32.503Z,72.76
2023-02-08T19:44:01.648Z,72.66
2023-02-08T19:46:29.964Z,72.77
2023-02-08T19:49:01.676Z,72.75
2023-02-08T19:51:32.292Z,72.94
2023-02-08T19:54:01.447Z,72.80
2023-02-08T19:56:33.875Z,72.93
2023-02-08T19:59:06.334Z,72.76
2023-02-08T20:01:35.522Z,73.06
2023-02-08T20:04:05.773Z,72.83
2023-02-08T20:06:36.083Z,72.92
2023-02-08T20:09:05.593Z,72.96
2023-02-08T20:11:45.121Z,72.91
2023-02-08T20:14:19.475Z,72.87
2023-02-08T20:16:48.148Z,72.88
2023-02-08T20:19:16.499Z,72.74
2023-02-08T20:21:45.591Z,72.88
2023-02-08T20:24:14.022Z,72.81
2023-02-08T20:26:43.973Z,72.89
2023-02-08T20:29:12.719Z,72.81
2023-02-08T20:31:43.371Z,72.86
2023-02-08T20:34:13.455Z,72.78
2023-02-08T20:36:49.772Z,72.71
2023-02-08T20:39:22.653Z,72.62
2023-02-08T20:41:51.105Z,72.45
2023-02-08T20:44:19.979Z,72.54
2023-02-08T20:46:48.222Z,72.53
2023-02-08T20:49:22.099Z,72.56
2023-02-08T20:51:52.165Z,72.63
2023-02-08T20:54:20.491Z,72.66
2023-02-08T20:56:48.768Z,72.69
2023-02-08T20:59:17.061Z,72.75
2023-02-08T21:01:46.602Z,72.49
2023-02-08T21:04:17.186Z,72.49
2023-02-08T21:06:46.335Z,72.55
2023-02-08T21:09:16.159Z,72.40
2023-02-08T21:11:44.704Z,72.50
2023-02-08T21:14:19.095Z,72.20
2023-02-08T21:16:48.781Z,72.26
2023-02-08T21:19:17.443Z,72.23
2023-02-08T21:21:45.936Z,72.15
2023-02-08T21:24:15.243Z,72.02
2023-02-08T21:26:43.307Z,72.07
2023-02-08T21:29:11.501Z,71.91
2023-02-08T21:31:39.782Z,72.25
2023-02-08T21:34:08.188Z,72.07
2023-02-08T21:36:36.612Z,72.13
2023-02-08T21:39:05.982Z,72.15
2023-02-08T21:41:34.380Z,72.07
2023-02-08T21:44:03.931Z,72.18
2023-02-08T21:46:32.326Z,72.04
2023-02-08T21:49:19.584Z,71.87
2023-02-08T21:52:07.716Z,71.85
2023-02-08T21:54:41.736Z,71.97
2023-02-08T21:57:19.100Z,71.87
2023-02-08T21:59:51.963Z,71.88
2023-02-08T22:02:28.173Z,71.95
2023-02-08T22:05:00.286Z,71.96
2023-02-08T22:07:32.199Z,71.80
2023-02-08T22:10:07.475Z,71.64
2023-02-08T22:12:40.341Z,71.78
2023-02-08T22:15:12.136Z,71.63
2023-02-08T22:17:44.168Z,71.64
2023-02-08T22:20:15.916Z,71.37
2023-02-08T22:22:47.221Z,71.64
2023-02-08T22:25:18.803Z,71.33
2023-02-08T22:27:49.470Z,71.30
2023-02-08T22:30:20.984Z,71.26
2023-02-08T22:32:52.558Z,71.28
2023-02-08T22:35:22.762Z,71.13
2023-02-08T22:37:52.136Z,71.14
2023-02-08T22:40:23.769Z,71.08
2023-02-08T22:42:54.206Z,71.17
2023-02-08T22:45:24.428Z,71.17
2023-02-08T22:47:55.217Z,71.12
2023-02-08T22:50:26.408Z,71.11
2023-02-08T23:00:32.498Z,70.87
2023-02-08T23:03:00.810Z,70.72
2023-02-08T23:05:29.387Z,70.68
2023-02-08T23:07:58.022Z,70.69
2023-02-08T23:10:26.300Z,70.88
2023-02-08T23:12:54.690Z,70.71
2023-02-08T23:15:22.954Z,70.72
2023-02-08T23:17:52.428Z,70.69
2023-02-08T23:20:20.537Z,70.70
2023-02-08T23:22:49.318Z,70.58
2023-02-08T23:25:18.131Z,70.61
2023-02-08T23:27:46.585Z,70.69
2023-02-08T23:30:15.305Z,70.71
2023-02-08T23:32:43.985Z,70.77
2023-02-08T23:35:12.440Z,70.96
2023-02-08T23:37:40.935Z,70.65
2023-02-08T23:40:10.400Z,70.83
2023-02-08T23:42:38.739Z,70.75
2023-02-08T23:45:08.030Z,70.96
2023-02-08T23:47:37.721Z,70.68
2023-02-08T23:50:07.091Z,70.77
2023-02-08T23:52:35.506Z,70.92
2023-02-08T23:55:05.132Z,71.02
2023-02-08T23:57:36.681Z,70.95
